Pagrindinis puslapis
METAR-TAF:

METAR-TAF

Oro uostai :

Ciuricho oro uostas

Ciurichas, Šveicarija

platuma: 47-29N, ilguma: 008-32E, Aukštis: 436 m

Dabartinis oras

Ataskaita buvo paskelbta 15 minutes, ne 10:50 UTC
Vėjas 2 kt nuo kintamojo kryptimis
Temperatūra 17°C
Drėgmė 63%
Slėgis 1020 hPa
Matomumas 10 km arba daugiau
nėra debesų žemiau 1500 m ir nėra kamuolinių lietaus debesų

METAR: LSZH 211050Z VRB02KT CAVOK 17/10 Q1020 NOSIG

Laikas: 13:05 (11:05 UTC)

Prognozė

Ataskaita buvo paskelbta 2 valandos ir 40 minutes, ne 08:25 UTC
Prognozė galioja nuo 21 metu 09 UTC su 22 metu 15 UTC
Vėjas 3 kt nuo kintamojo kryptimis
Matomumas 10 km arba daugiau
nėra debesų žemiau 1500 m ir nėra kamuolinių lietaus debesų

TAF: LSZH 210825Z 2109/2215 VRB03KT CAVOK TX21/2114Z TN09/2205Z TX22/2214Z

Orai ataskaitas ir orų prognozės (METAR, TAF).

turimą stotys yra geltonos ir raudonos taškus žemėlapyje.

Perkelti pele per norėdami pamatyti stoties vardą.

Tada spustelėkite, norėdami matyti oro stebėjimo ir prognozės.

Norėdami pakeisti žemėlapį: spustelėkite ant žalios mygtukų su juodo kryžiaus žemyn,; žalią mygtuką su brūkšneliu, jei norite nutolinti; arba žalių rodyklių gretimoms žemėlapius.


METAR-TAF: